Terminal Aerodrome Forecast
Issued by NWS

Home | Current Version | Previous Version | Text Only | Print | Product List | Glossary Off
Versions: 1 2 3 4 5 6 7 8 9 10 11 12 13 14 15 16 17

000
FTUS43 KABR 181600 AAE
TAFPIR
TAF AMD
KPIR 181647Z 1817/1912 15015KT P6SM SCT004
     FM181900 14015KT P6SM SKC
     FM190200 17007KT P6SM BKN250=

USA.gov is the U.S. government's official web portal to all federal, state and local government web resources and services.